Time;durP1;ratioP1;P1;durP2;ratioP2;P2;SDS_P1;SDS_P2;PMS_P1;PMS_P2;Temp;Humidity;BMP_temperature;BMP_pressure;BME280_temperature;BME280_humidity;BME280_pressure;Samples;Min_cycle;Max_cycle;Signal;HPM_P1;HPM_P2
2022/06/10 00:01:06;;;;;;;25.40;8.85;;;;;;;30.85;29.10;98968.59;4959244;28;20152;-75
2022/06/10 00:03:32;;;;;;;33.58;9.30;;;;;;;30.81;29.48;98972.25;4960439;28;20053;-75
2022/06/10 00:06:00;;;;;;;34.97;9.05;;;;;;;30.90;29.85;98979.47;4960439;28;20046;-75
2022/06/10 00:08:29;;;;;;;29.60;9.38;;;;;;;30.95;29.89;98975.78;4992132;28;20040;-75
2022/06/10 00:10:56;;;;;;;24.23;9.60;;;;;;;30.83;30.20;98978.25;4976408;28;20042;-75
2022/06/10 00:13:24;;;;;;;23.15;8.80;;;;;;;30.82;30.41;98982.91;4992619;28;20042;-76
2022/06/10 00:15:50;;;;;;;30.33;9.32;;;;;;;30.61;30.23;98978.09;4976579;28;20133;-75
2022/06/10 00:18:16;;;;;;;32.20;9.27;;;;;;;30.63;29.75;98984.91;4960745;28;20416;-75
2022/06/10 00:20:43;;;;;;;38.53;9.20;;;;;;;30.54;29.83;98975.75;4959918;28;20100;-75
2022/06/10 00:23:09;;;;;;;32.90;8.68;;;;;;;30.68;29.48;98982.06;4974108;28;20046;-76
2022/06/10 00:25:36;;;;;;;28.92;9.23;;;;;;;30.85;29.73;98982.31;4990118;28;20070;-75
2022/06/10 00:28:03;;;;;;;28.83;8.93;;;;;;;30.64;29.59;98963.78;4989632;28;20050;-76
2022/06/10 00:30:29;;;;;;;24.13;8.10;;;;;;;30.78;29.13;98989.31;4974137;28;20635;-76
2022/06/10 00:32:56;;;;;;;25.85;8.40;;;;;;;30.86;29.11;98999.56;4974383;28;20038;-76
2022/06/10 00:35:22;;;;;;;30.50;8.68;;;;;;;30.83;29.34;98995.50;4974494;28;20069;-76
2022/06/10 00:37:48;;;;;;;24.23;8.85;;;;;;;30.60;29.89;98976.50;4974914;28;20065;-75
2022/06/10 00:40:19;;;;;;;34.97;9.75;;;;;;;30.83;30.11;98995.50;4959805;28;20469;-75
2022/06/10 00:42:45;;;;;;;30.45;9.18;;;;;;;30.56;30.46;99002.88;5008397;28;20042;-74
2022/06/10 00:45:45;;;;;;;19.63;8.27;;;;;;;30.87;29.46;99003.94;4959571;28;20049;-74
2022/06/10 00:48:14;;;;;;;29.27;8.20;;;;;;;30.97;29.29;99003.72;4975761;28;20046;-75
2022/06/10 00:50:40;;;;;;;28.02;8.68;;;;;;;30.68;29.70;99006.75;4991656;28;20740;-76
2022/06/10 00:53:06;;;;;;;22.05;8.82;;;;;;;30.77;29.58;98998.63;4959432;28;20093;-75
2022/06/10 00:55:36;;;;;;;19.30;8.68;;;;;;;30.75;30.19;99006.38;4990820;28;20515;-76
2022/06/10 00:58:06;;;;;;;27.73;9.25;;;;;;;30.95;30.35;99000.47;4975923;28;20054;-75
2022/06/10 01:00:32;;;;;;;;;;;;;;;31.04;29.21;99017.84;4959486;28;20493;-73
2022/06/10 01:02:58;;;;;;;24.90;9.38;;;;;;;30.73;29.92;99014.88;4975191;28;19932;-73
2022/06/10 01:05:26;;;;;;;25.85;9.45;;;;;;;30.76;29.98;99013.47;4975036;28;20161;-73
2022/06/10 01:08:00;;;;;;;30.48;10.45;;;;;;;30.84;30.01;99018.25;4992339;28;20413;-72
2022/06/10 01:10:26;;;;;;;21.75;10.65;;;;;;;30.78;30.21;99030.44;4975112;28;20048;-74
2022/06/10 01:13:01;;;;;;;28.23;11.43;;;;;;;30.94;30.12;99034.50;4975018;28;20533;-74
2022/06/10 01:15:30;;;;;;;28.27;12.73;;;;;;;30.79;30.43;99035.63;4992292;28;20053;-74
2022/06/10 01:18:16;;;;;;;29.70;12.88;;;;;;;30.65;30.70;99047.66;4974837;28;20140;-73
2022/06/10 01:21:10;;;;;;;31.83;14.05;;;;;;;30.93;30.49;99046.59;4975120;28;20046;-74
2022/06/10 01:24:06;;;;;;;29.55;13.48;;;;;;;30.85;30.69;99041.81;4974612;28;20046;-75
2022/06/10 01:30:06;;;;;;;27.52;11.48;;;;;;;30.79;30.88;99056.75;4977236;28;20053;-74
2022/06/10 01:32:56;;;;;;;26.23;11.05;;;;;;;30.85;30.92;99050.03;4975791;28;20053;-74
2022/06/10 01:35:41;;;;;;;33.53;11.85;;;;;;;30.42;31.72;99045.88;4974760;28;20046;-72
2022/06/10 01:38:17;;;;;;;27.60;11.18;;;;;;;30.48;31.67;99061.94;4992054;28;20046;-75
2022/06/10 01:40:51;;;;;;;26.55;11.00;;;;;;;30.76;31.37;99054.59;4957963;28;20116;-73
2022/06/10 01:43:23;;;;;;;24.60;11.23;;;;;;;30.76;31.44;99057.34;4975665;28;20504;-77
2022/06/10 01:46:05;;;;;;;32.08;11.80;;;;;;;30.98;30.94;99060.22;4959953;28;20053;-76
2022/06/10 01:48:45;;;;;;;35.45;11.50;;;;;;;30.70;30.88;99061.28;4958507;28;20120;-75
2022/06/10 01:51:23;;;;;;;31.67;11.35;;;;;;;30.59;31.21;99037.91;4957824;28;20038;-75
2022/06/10 01:53:54;;;;;;;27.23;9.95;;;;;;;30.56;31.11;99063.16;4957023;28;20042;-74
2022/06/10 01:56:25;;;;;;;;;;;;;;;30.56;31.46;99064.00;4972764;28;20416;-73
2022/06/10 01:58:58;;;;;;;30.52;9.70;;;;;;;30.34;31.62;99063.81;4956033;28;19999;-73
2022/06/10 02:01:40;;;;;;;28.48;8.75;;;;;;;30.27;31.84;99051.63;4955975;28;20113;-73
2022/06/10 02:04:11;;;;;;;29.90;9.35;;;;;;;30.19;32.37;99055.84;4973811;28;20108;-73
2022/06/10 02:06:53;;;;;;;25.58;9.38;;;;;;;30.14;32.04;99058.66;4973996;28;20046;-75
2022/06/10 02:09:24;;;;;;;27.55;8.55;;;;;;;30.12;32.26;99060.09;4974691;28;20504;-74
2022/06/10 02:11:56;;;;;;;20.95;8.90;;;;;;;30.14;32.52;99046.91;4974251;28;20515;-73
2022/06/10 02:14:42;;;;;;;22.65;8.23;;;;;;;30.18;32.36;99045.19;4973991;28;20512;-73
2022/06/10 02:17:10;;;;;;;18.92;7.97;;;;;;;30.02;32.75;99041.88;5006242;28;20044;-72
2022/06/10 02:19:39;;;;;;;20.45;7.40;;;;;;;29.94;32.66;99037.06;4974006;28;20046;-73
2022/06/10 02:22:07;;;;;;;16.83;7.05;;;;;;;29.71;33.34;99050.88;4989900;28;20130;-74
2022/06/10 02:24:57;;;;;;;10.70;6.07;;;;;;;30.20;33.03;99043.00;4973498;28;20137;-74
2022/06/10 02:27:26;;;;;;;20.63;6.38;;;;;;;30.38;33.21;99056.66;4988538;28;20862;-74
2022/06/10 02:30:15;;;;;;;10.75;5.75;;;;;;;30.66;32.62;99063.78;5006431;28;20129;-73
2022/06/10 02:32:42;;;;;;;11.45;5.30;;;;;;;30.73;32.49;99068.91;4989471;28;20042;-74
2022/06/10 02:35:09;;;;;;;14.77;5.68;;;;;;;30.78;32.32;99083.34;5017137;28;20106;-75
2022/06/10 02:38:19;;;;;;;12.55;5.88;;;;;;;31.08;32.20;99077.28;4991785;28;20037;-74
2022/06/10 02:40:50;;;;;;;7.82;5.20;;;;;;;31.03;32.39;99071.06;5008459;28;20050;-73
2022/06/10 02:43:35;;;;;;;10.52;5.72;;;;;;;30.93;32.24;99090.47;5007858;28;20053;-74
2022/06/10 02:46:27;;;;;;;9.52;5.20;;;;;;;31.13;32.23;99090.91;4973419;28;20046;-74
2022/06/10 02:49:08;;;;;;;15.13;5.78;;;;;;;31.04;32.76;99089.97;5023462;28;20069;-74
2022/06/10 02:51:34;;;;;;;12.45;5.80;;;;;;;30.82;32.55;99087.13;5009767;28;20084;-73
2022/06/10 02:54:03;;;;;;;10.95;6.00;;;;;;;30.92;32.48;99081.44;4976386;28;20069;-75
2022/06/10 02:56:29;;;;;;;13.82;5.60;;;;;;;30.83;32.75;99074.22;5024859;28;20056;-75
2022/06/10 03:01:46;;;;;;;19.77;7.10;;;;;;;30.89;33.41;99103.19;4993797;28;20120;-73
2022/06/10 03:04:20;;;;;;;12.07;7.03;;;;;;;30.93;33.77;99079.50;4975734;28;20050;-74
2022/06/10 03:06:59;;;;;;;13.43;6.43;;;;;;;30.93;34.14;99107.75;5009376;28;20533;-75
2022/06/10 03:09:47;;;;;;;22.20;6.82;;;;;;;30.98;34.06;99096.66;4976622;28;20053;-75
2022/06/10 03:12:43;;;;;;;10.93;5.95;;;;;;;30.88;33.98;99088.66;5009440;28;20938;-74
2022/06/10 03:15:15;;;;;;;14.02;5.43;;;;;;;30.91;34.13;99087.22;4984028;28;20426;-73
2022/06/10 03:17:41;;;;;;;8.35;5.20;;;;;;;30.39;33.75;99011.69;4993137;28;20119;-72
2022/06/10 03:20:24;;;;;;;10.77;4.93;;;;;;;31.50;33.02;99080.84;4979699;28;20527;-73
2022/06/10 03:23:01;;;;;;;10.48;5.10;;;;;;;31.53;33.05;99074.72;5012821;28;20056;-71
2022/06/10 03:25:44;;;;;;;10.35;5.10;;;;;;;31.67;32.69;99064.53;4990242;28;20068;-73
2022/06/10 03:28:15;;;;;;;10.93;4.65;;;;;;;31.52;32.69;99075.84;5011098;28;20050;-74
2022/06/10 03:31:00;;;;;;;17.48;4.95;;;;;;;31.69;32.53;99049.34;4979357;28;20781;-75
2022/06/10 03:33:34;;;;;;;8.05;5.03;;;;;;;31.70;32.34;99074.88;5012812;28;20034;-73
2022/06/10 03:36:23;;;;;;;10.43;5.15;;;;;;;32.01;32.16;99062.13;4996063;28;20042;-74
2022/06/10 03:38:50;;;;;;;10.75;5.07;;;;;;;31.58;32.99;99052.66;5012276;28;20099;-72
2022/06/10 03:41:19;;;;;;;9.48;4.82;;;;;;;31.79;32.78;99062.03;4995618;28;20392;-73
2022/06/10 03:43:45;;;;;;;7.78;5.30;;;;;;;31.61;32.54;99035.56;5011633;28;20073;-75
2022/06/10 03:46:12;;;;;;;13.27;5.22;;;;;;;31.91;32.14;99062.34;4995317;28;20042;-76
2022/06/10 03:48:41;;;;;;;9.75;5.30;;;;;;;31.93;32.16;99066.41;5011772;28;20499;-71
2022/06/10 03:51:09;;;;;;;10.73;4.63;;;;;;;31.86;32.46;99079.75;4995246;28;20057;-72
2022/06/10 03:53:34;;;;;;;21.45;5.45;;;;;;;31.51;32.46;99055.00;5011710;28;20050;-72
2022/06/10 03:56:00;;;;;;;11.30;5.45;;;;;;;31.61;32.61;99069.34;5012999;28;20053;-74
2022/06/10 03:58:26;;;;;;;12.50;4.90;;;;;;;31.43;33.21;99056.53;5011664;28;20392;-73
2022/06/10 04:00:52;;;;;;;10.27;5.07;;;;;;;31.48;33.03;99075.66;4995221;28;20511;-73
2022/06/10 04:03:20;;;;;;;7.80;4.85;;;;;;;31.28;33.47;99075.22;4979051;28;20482;-72
2022/06/10 04:05:46;;;;;;;7.72;4.97;;;;;;;31.46;32.87;99066.91;5011621;28;20573;-71
2022/06/10 04:08:12;;;;;;;8.45;4.53;;;;;;;31.77;32.67;99081.59;4978677;28;20073;-72
2022/06/10 04:10:37;;;;;;;6.93;4.55;;;;;;;31.97;32.10;99083.88;4995101;28;20097;-72
2022/06/10 04:13:03;;;;;;;9.57;4.70;;;;;;;32.17;31.29;99094.41;5011224;28;20037;-73
2022/06/10 04:15:29;;;;;;;9.05;5.00;;;;;;;32.25;31.32;99090.91;5011619;28;20530;-74
2022/06/10 04:17:56;;;;;;;5.35;4.55;;;;;;;32.45;30.64;99093.19;4995149;28;20041;-74
2022/06/10 04:20:28;;;;;;;8.70;4.68;;;;;;;32.26;31.10;99088.97;5011101;28;20176;-74
2022/06/10 04:22:54;;;;;;;8.68;5.07;;;;;;;32.25;31.09;99095.59;5011530;28;20454;-74
2022/06/10 04:25:20;;;;;;;9.70;5.30;;;;;;;32.33;31.10;99092.91;4961510;28;20042;-75
2022/06/10 04:27:46;;;;;;;12.07;5.32;;;;;;;32.49;30.63;99082.38;4959812;28;20074;-75
2022/06/10 04:30:36;;;;;;;8.98;5.20;;;;;;;32.54;30.80;99088.53;4975510;28;20045;-75
2022/06/10 04:33:03;;;;;;;9.02;5.13;;;;;;;32.66;30.64;99087.94;4991750;28;20046;-76
2022/06/10 04:35:29;;;;;;;14.52;5.40;;;;;;;32.48;30.79;99081.56;4959685;28;20112;-74
2022/06/10 04:37:56;;;;;;;11.43;4.75;;;;;;;32.36;30.47;99081.31;4960521;28;20038;-75
2022/06/10 04:40:25;;;;;;;7.88;4.63;;;;;;;32.24;30.45;99059.06;4976205;28;20046;-77
2022/06/10 04:42:51;;;;;;;8.93;4.82;;;;;;;32.21;30.25;99089.88;4995399;28;20065;-76
2022/06/10 04:45:21;;;;;;;6.32;4.63;;;;;;;32.31;30.18;99097.91;4976494;28;20504;-76
2022/06/10 04:47:47;;;;;;;12.85;4.72;;;;;;;32.29;29.91;99093.84;4993029;28;20069;-76
2022/06/10 04:50:17;;;;;;;6.20;4.65;;;;;;;32.52;30.10;99096.28;4992830;28;20077;-75
2022/06/10 04:52:44;;;;;;;9.35;4.57;;;;;;;32.50;29.77;99092.25;4993332;28;20073;-74
2022/06/10 04:55:10;;;;;;;10.40;4.55;;;;;;;32.47;30.05;99095.63;5009074;28;20042;-75
2022/06/10 04:57:37;;;;;;;11.02;4.63;;;;;;;32.60;30.00;99090.03;4992795;28;20399;-77
2022/06/10 05:00:05;;;;;;;9.00;4.70;;;;;;;32.53;30.37;99099.84;4996583;28;20050;-76
2022/06/10 05:02:34;;;;;;;14.65;5.25;;;;;;;32.39;29.83;99104.63;4999394;28;20068;-78
2022/06/10 05:05:00;;;;;;;9.80;4.60;;;;;;;32.44;29.91;99077.00;4996201;28;20030;-76
2022/06/10 05:07:26;;;;;;;8.70;5.13;;;;;;;32.50;29.66;99104.06;4997145;28;20048;-77
2022/06/10 05:09:52;;;;;;;8.57;5.20;;;;;;;32.65;29.45;99102.84;5019746;28;20240;-77
2022/06/10 05:12:18;;;;;;;14.05;4.93;;;;;;;32.82;29.31;99094.69;5000794;28;20077;-77
2022/06/10 05:14:43;;;;;;;10.57;4.93;;;;;;;32.97;28.73;99107.25;4977667;28;20077;-76
2022/06/10 05:17:09;;;;;;;12.60;5.38;;;;;;;33.01;28.61;99103.56;4993076;28;20065;-77
2022/06/10 05:19:35;;;;;;;10.75;5.45;;;;;;;33.02;28.52;99109.84;4959946;28;20080;-76
2022/06/10 05:22:01;;;;;;;6.97;5.10;;;;;;;32.92;28.84;99096.38;4975787;28;20037;-76
2022/06/10 05:24:28;;;;;;;8.57;5.30;;;;;;;33.09;28.39;99115.72;5025036;28;20096;-77
2022/06/10 05:26:54;;;;;;;9.63;5.28;;;;;;;33.18;27.94;99109.13;4975992;28;20038;-78
2022/06/10 05:29:20;;;;;;;9.20;5.47;;;;;;;33.28;28.05;99127.28;4959223;28;20129;-77
2022/06/10 05:31:46;;;;;;;6.88;5.30;;;;;;;33.23;28.01;99117.22;5009929;28;20499;-75
2022/06/10 05:36:56;;;;;;;7.75;4.93;;;;;;;33.31;27.39;99102.69;4989992;28;20037;-76
2022/06/10 05:39:22;;;;;;;9.20;4.88;;;;;;;33.40;27.18;99105.50;4984818;28;20471;-78
2022/06/10 05:42:05;;;;;;;7.13;5.20;;;;;;;33.37;27.08;99104.16;4983861;28;20119;-79
2022/06/10 05:44:35;;;;;;;5.78;5.00;;;;;;;33.43;27.30;99107.63;5003282;28;20045;-78
2022/06/10 05:47:03;;;;;;;7.72;5.20;;;;;;;33.42;27.53;99114.25;5014928;28;20046;-77
2022/06/10 05:49:31;;;;;;;8.88;5.65;;;;;;;33.45;27.31;99113.59;5000628;28;20045;-76
2022/06/10 05:51:57;;;;;;;12.07;6.00;;;;;;;33.44;27.55;99114.75;4985633;28;20132;-72
2022/06/10 05:54:23;;;;;;;11.70;4.95;;;;;;;33.61;27.46;99131.31;5014480;28;20042;-74
2022/06/10 05:56:49;;;;;;;7.80;5.40;;;;;;;33.48;27.07;99122.03;5000311;28;20048;-73
2022/06/10 05:59:15;;;;;;;7.07;4.55;;;;;;;33.61;26.89;99123.84;5017531;28;20415;-72
2022/06/10 06:01:41;;;;;;;12.80;4.97;;;;;;;33.66;26.57;99122.91;5001947;28;20041;-74
2022/06/10 06:04:07;;;;;;;13.65;5.53;;;;;;;33.72;26.79;99129.88;4974426;28;20056;-74
2022/06/10 06:06:33;;;;;;;6.32;5.18;;;;;;;33.68;26.59;99115.94;4952397;28;20066;-76
2022/06/10 06:08:59;;;;;;;10.45;4.90;;;;;;;33.68;26.89;99124.19;4956226;28;20042;-71
2022/06/10 06:11:27;;;;;;;7.47;5.00;;;;;;;33.63;26.96;99123.56;4987192;28;20133;-72
2022/06/10 06:13:53;;;;;;;9.25;5.22;;;;;;;33.72;26.56;99121.63;4954755;28;20549;-73
2022/06/10 06:16:19;;;;;;;8.00;5.15;;;;;;;33.87;26.71;99121.97;4969605;28;20538;-71
2022/06/10 06:18:45;;;;;;;13.27;5.43;;;;;;;34.02;26.25;99123.47;4969556;28;20038;-73
2022/06/10 06:21:11;;;;;;;10.88;4.95;;;;;;;34.14;26.01;99126.38;5002648;28;20042;-73
2022/06/10 06:23:40;;;;;;;6.50;5.45;;;;;;;34.29;25.95;99119.56;4970551;28;20141;-73
2022/06/10 06:26:13;;;;;;;8.45;4.70;;;;;;;34.36;25.44;99090.38;4957141;28;20068;-72
2022/06/10 06:28:49;;;;;;;9.23;5.25;;;;;;;34.75;25.08;99109.44;4956371;28;20046;-71
2022/06/10 06:31:15;;;;;;;9.45;5.10;;;;;;;34.87;25.28;99128.94;4955900;28;20061;-72
2022/06/10 06:33:41;;;;;;;8.30;5.32;;;;;;;35.07;24.77;99128.22;4988241;28;20428;-72
2022/06/10 06:36:10;;;;;;;10.15;5.68;;;;;;;35.33;24.71;99112.34;5013775;28;20048;-72
2022/06/10 06:38:35;;;;;;;7.55;5.50;;;;;;;35.39;24.47;99121.28;5033351;28;20046;-72
2022/06/10 06:41:01;;;;;;;8.10;4.70;;;;;;;35.65;24.04;99114.47;4967140;28;20095;-73
2022/06/10 06:43:27;;;;;;;11.10;4.70;;;;;;;35.81;23.66;99113.88;4983785;28;20049;-71
2022/06/10 06:45:53;;;;;;;16.40;5.03;;;;;;;35.95;23.35;99118.03;4974969;28;20451;-72
2022/06/10 06:48:19;;;;;;;9.02;4.57;;;;;;;36.18;22.90;99116.53;4991221;28;20522;-72
2022/06/10 06:50:48;;;;;;;10.43;4.80;;;;;;;36.40;22.95;99091.31;4975026;28;20046;-73
2022/06/10 06:53:14;;;;;;;7.13;4.43;;;;;;;36.51;22.88;99109.09;5008392;28;20050;-71
2022/06/10 06:55:41;;;;;;;9.70;4.68;;;;;;;36.55;23.00;99112.00;5010268;28;20064;-70
2022/06/10 06:58:09;;;;;;;11.27;4.95;;;;;;;36.69;22.37;99107.78;4993775;28;20469;-71
2022/06/10 07:00:35;;;;;;;12.70;5.05;;;;;;;36.51;22.52;99108.28;5009891;28;20604;-73
2022/06/10 07:03:00;;;;;;;10.32;5.03;;;;;;;36.38;22.95;99106.63;4962309;28;20050;-71
2022/06/10 07:05:26;;;;;;;7.90;4.70;;;;;;;36.39;22.97;99111.84;4994979;28;20053;-69
2022/06/10 07:07:52;;;;;;;7.93;4.85;;;;;;;36.58;23.04;99114.09;4995140;28;20570;-71
2022/06/10 07:10:20;;;;;;;9.45;4.72;;;;;;;36.71;22.85;99101.88;4994690;28;20041;-70
2022/06/10 07:12:47;;;;;;;10.90;6.07;;;;;;;36.69;22.82;99107.78;5010486;28;20052;-70
2022/06/10 07:15:13;;;;;;;9.30;5.20;;;;;;;36.51;22.95;99111.06;5010894;28;20042;-70
2022/06/10 07:17:40;;;;;;;8.75;4.80;;;;;;;36.75;22.95;99122.22;4994266;28;20469;-70
2022/06/10 07:20:07;;;;;;;7.38;4.55;;;;;;;37.19;22.01;99121.38;5010775;28;20050;-70
2022/06/10 07:22:33;;;;;;;10.55;4.55;;;;;;;37.61;21.58;99119.22;4978725;28;20573;-71
2022/06/10 07:24:59;;;;;;;14.25;4.95;;;;;;;37.89;20.71;99122.91;4977639;28;20140;-72
2022/06/10 07:27:25;;;;;;;8.48;4.60;;;;;;;38.15;20.80;99123.34;4977991;28;20455;-72
2022/06/10 07:29:51;;;;;;;6.35;4.40;;;;;;;38.08;20.57;99126.66;4994405;28;20064;-72
2022/06/10 07:32:17;;;;;;;8.32;4.80;;;;;;;38.62;20.10;99108.47;4962200;28;20072;-73
2022/06/10 07:34:43;;;;;;;5.80;4.65;;;;;;;39.32;19.06;99128.19;4994538;28;20045;-72
2022/06/10 07:37:09;;;;;;;6.90;4.82;;;;;;;39.80;18.73;99125.78;4994171;28;20038;-73
2022/06/10 07:39:35;;;;;;;7.40;4.50;;;;;;;40.68;17.80;99122.16;4994437;28;20056;-75
2022/06/10 07:42:02;;;;;;;8.52;4.70;;;;;;;41.15;17.24;99125.44;4994642;28;20088;-73
2022/06/10 07:44:31;;;;;;;6.50;4.22;;;;;;;41.72;16.68;99116.81;4996509;28;20133;-73
2022/06/10 07:46:59;;;;;;;13.80;5.00;;;;;;;43.90;14.45;99136.03;4994940;28;20240;-74
2022/06/10 07:49:26;;;;;;;8.73;4.78;;;;;;;46.06;12.95;99133.25;5010781;28;20285;-74
2022/06/10 07:51:51;;;;;;;8.38;3.45;;;;;;;48.45;10.59;99098.47;4978446;28;20108;-72
2022/06/10 07:54:17;;;;;;;8.90;3.85;;;;;;;50.18;9.33;99124.59;4994182;28;20423;-75
2022/06/10 07:56:44;;;;;;;7.60;3.80;;;;;;;50.56;8.93;99120.19;4977655;28;20038;-75
2022/06/10 07:59:10;;;;;;;7.97;3.90;;;;;;;49.85;9.27;99115.19;4976906;28;20044;-76
2022/06/10 08:01:37;;;;;;;7.47;3.70;;;;;;;48.03;10.45;99107.44;4977756;28;20109;-75
2022/06/10 08:04:06;;;;;;;8.40;3.65;;;;;;;46.79;11.35;99111.69;5008292;28;20046;-74
2022/06/10 08:06:33;;;;;;;4.47;3.42;;;;;;;45.15;12.27;99106.06;4994175;28;20512;-73
2022/06/10 08:08:59;;;;;;;7.78;4.18;;;;;;;44.29;13.19;99114.66;5009985;28;20046;-73
2022/06/10 08:11:25;;;;;;;14.10;4.50;;;;;;;45.86;11.84;99118.88;4977501;28;20420;-73
2022/06/10 08:13:50;;;;;;;10.10;3.75;;;;;;;46.07;11.48;99106.78;4989880;28;20196;-74
2022/06/10 08:16:18;;;;;;;6.80;3.80;;;;;;;46.29;11.01;99091.47;4942351;28;20144;-73
2022/06/10 08:18:44;;;;;;;5.28;3.60;;;;;;;46.67;11.14;99117.78;4974355;28;20085;-73
2022/06/10 08:23:56;;;;;;;9.88;5.38;;;;;;;45.52;11.92;99117.72;4960442;28;20489;-74
2022/06/10 08:26:24;;;;;;;9.55;4.30;;;;;;;45.27;12.52;99111.28;4958364;28;20500;-73
2022/06/10 08:28:54;;;;;;;8.63;4.30;;;;;;;45.18;12.45;99113.69;4990463;28;20054;-72
2022/06/10 08:31:21;;;;;;;7.63;3.65;;;;;;;46.82;9.91;99116.47;4988804;28;20073;-72
2022/06/10 08:33:47;;;;;;;9.88;3.78;;;;;;;49.31;8.61;99116.53;4957390;28;20042;-73
2022/06/10 08:36:13;;;;;;;7.25;3.20;;;;;;;51.55;7.30;99118.63;4942083;28;20057;-72
2022/06/10 08:38:43;;;;;;;4.68;3.17;;;;;;;53.41;6.57;99115.88;4956894;28;20046;-72
2022/06/10 08:41:39;;;;;;;6.43;3.13;;;;;;;54.97;5.55;99115.31;4958212;28;20073;-72
2022/06/10 08:44:10;;;;;;;10.15;3.00;;;;;;;56.20;4.82;99110.75;4941645;28;20053;-77
2022/06/10 08:46:55;;;;;;;6.90;2.97;;;;;;;55.41;5.29;99113.84;4990926;28;20097;-74
2022/06/10 08:49:43;;;;;;;5.65;3.20;;;;;;;53.68;6.58;99106.84;4957962;28;20587;-75
2022/06/10 08:52:40;;;;;;;5.50;3.55;;;;;;;54.20;6.35;99110.59;4974379;28;20053;-76
2022/06/10 08:55:25;;;;;;;8.18;3.28;;;;;;;55.10;5.36;99121.69;4990504;28;20068;-80
2022/06/10 08:57:53;;;;;;;6.93;3.30;;;;;;;54.22;6.06;99113.00;4990155;28;20050;-75
2022/06/10 09:00:20;;;;;;;8.60;3.42;;;;;;;54.74;5.14;99099.56;4942424;28;20054;-77
2022/06/10 09:03:00;;;;;;;8.65;3.42;;;;;;;55.31;5.03;99108.63;4974205;28;20050;-75
2022/06/10 09:05:54;;;;;;;4.97;3.00;;;;;;;55.23;5.08;99122.38;4973425;28;20496;-77
2022/06/10 09:08:24;;;;;;;4.88;2.80;;;;;;;54.43;5.01;99109.31;4949347;28;20046;-75
2022/06/10 09:11:19;;;;;;;7.20;2.72;;;;;;;53.74;5.09;99113.53;4973998;28;20117;-74
2022/06/10 09:13:55;;;;;;;6.85;3.22;;;;;;;54.39;5.25;99111.53;4972993;28;20578;-76
2022/06/10 09:16:35;;;;;;;6.97;2.90;;;;;;;55.81;4.37;99111.72;4940929;28;20077;-75
2022/06/10 09:19:13;;;;;;;3.47;2.60;;;;;;;56.74;3.68;99098.41;5006299;28;20050;-78
2022/06/10 09:21:48;;;;;;;8.02;2.90;;;;;;;56.88;3.71;99103.44;4974096;28;20050;-77
2022/06/10 09:24:54;;;;;;;4.82;2.72;;;;;;;56.58;3.76;99098.75;5007515;28;20072;-75
2022/06/10 09:27:28;;;;;;;2.75;2.35;;;;;;;55.97;4.02;99097.13;4976195;28;20077;-75
2022/06/10 09:29:57;;;;;;;3.72;2.60;;;;;;;55.97;4.46;99096.34;4959989;28;20041;-75
2022/06/10 09:32:47;;;;;;;6.55;5.88;;;;;;;55.24;4.71;99089.75;4960755;28;20125;-75
2022/06/10 09:35:20;;;;;;;10.35;2.78;;;;;;;52.96;5.93;99084.16;5024587;28;20049;-76
2022/06/10 09:37:52;;;;;;;6.90;3.08;;;;;;;52.44;6.24;99084.53;4991544;28;20057;-74
2022/06/10 09:40:38;;;;;;;5.05;2.90;;;;;;;53.71;5.61;99091.72;4975477;28;20424;-74
2022/06/10 09:43:37;;;;;;;5.82;2.83;;;;;;;55.52;4.12;99096.31;4960294;28;20045;-74
2022/06/10 09:46:10;;;;;;;;;;;;;;;57.01;3.24;99101.16;4966866;28;20038;-75
2022/06/10 09:48:57;;;;;;;5.53;2.42;;;;;;;58.15;2.61;99103.34;4992729;28;19960;-74
2022/06/10 09:52:01;;;;;;;7.57;2.70;;;;;;;58.58;3.01;99099.69;4975915;28;20445;-72
2022/06/10 09:54:34;;;;;;;6.63;2.30;;;;;;;58.29;2.93;99093.19;4992069;28;20045;-74
2022/06/10 09:57:32;;;;;;;5.80;2.40;;;;;;;58.31;2.18;99097.13;4992765;28;20169;-73
2022/06/10 10:00:01;;;;;;;6.57;2.28;;;;;;;56.69;3.14;99090.50;4991705;28;21279;-73
2022/06/10 10:03:10;;;;;;;4.38;2.35;;;;;;;56.65;3.60;99092.75;4975499;28;20053;-73
2022/06/10 10:06:16;;;;;;;4.63;2.40;;;;;;;57.11;3.18;99079.84;4975905;28;20037;-74
2022/06/10 10:09:05;;;;;;;3.25;2.20;;;;;;;56.93;3.19;99067.72;5008785;28;20081;-74
2022/06/10 10:12:09;;;;;;;5.38;2.08;;;;;;;56.65;2.76;99072.78;5007966;28;20148;-78
2022/06/10 10:14:53;;;;;;;5.15;2.63;;;;;;;56.47;3.74;99075.66;4996340;28;20046;-74
2022/06/10 10:17:44;;;;;;;6.07;2.20;;;;;;;57.25;2.99;99072.63;5007854;28;20095;-74
2022/06/10 10:20:42;;;;;;;10.80;2.17;;;;;;;56.62;3.11;99070.84;4975669;28;20050;-75
2022/06/10 10:23:22;;;;;;;6.32;3.60;;;;;;;56.07;3.47;99081.59;5008386;28;20069;-76
2022/06/10 10:25:50;;;;;;;6.85;2.60;;;;;;;56.39;3.42;99080.16;4991446;28;20073;-74
2022/06/10 10:28:22;;;;;;;3.63;2.47;;;;;;;57.22;2.66;99076.44;5007145;28;20045;-75
2022/06/10 10:30:56;;;;;;;5.07;2.20;;;;;;;57.92;2.41;99078.44;4990480;28;20049;-75
2022/06/10 10:33:22;;;;;;;7.15;2.20;;;;;;;58.36;2.30;99073.53;4991581;28;20038;-75
2022/06/10 10:35:54;;;;;;;3.88;2.40;;;;;;;58.74;1.77;99070.56;4991109;28;20100;-76
2022/06/10 10:38:42;;;;;;;4.97;2.08;;;;;;;59.22;1.58;99090.28;4991853;28;20419;-76
2022/06/10 10:41:37;;;;;;;5.22;2.20;;;;;;;59.02;1.55;99082.47;5007667;28;20046;-75
2022/06/10 10:44:20;;;;;;;4.93;2.00;;;;;;;58.73;1.95;99077.56;4975174;28;20235;-76
2022/06/10 10:47:15;;;;;;;3.50;2.22;;;;;;;58.87;1.69;99070.25;4976494;28;20458;-76
2022/06/10 10:49:51;;;;;;;6.90;2.20;;;;;;;58.92;1.94;99073.19;4976518;28;20109;-77
2022/06/10 10:52:27;;;;;;;4.63;1.92;;;;;;;58.73;1.73;99066.13;5008510;28;20041;-75
2022/06/10 10:54:55;;;;;;;3.50;1.95;;;;;;;58.38;2.02;99055.91;5008593;28;20049;-74
2022/06/10 10:57:22;;;;;;;6.18;2.20;;;;;;;58.24;2.29;99057.47;4991273;28;20042;-74
2022/06/10 10:59:55;;;;;;;3.70;1.90;;;;;;;58.08;1.77;99065.75;4974790;28;20065;-75
2022/06/10 11:02:48;;;;;;;3.17;2.00;;;;;;;55.48;3.01;99061.50;4991055;28;20050;-75
2022/06/10 11:05:34;;;;;;;8.25;2.85;;;;;;;52.40;4.69;99060.38;4975139;28;20088;-75
2022/06/10 11:08:20;;;;;;;4.07;3.78;;;;;;;50.95;5.40;99026.72;4974679;28;20046;-74
2022/06/10 11:10:55;;;;;;;6.82;2.10;;;;;;;50.14;5.64;99050.41;4974685;28;20064;-74
2022/06/10 11:13:46;;;;;;;2.63;2.38;;;;;;;48.64;6.97;99049.88;4974242;28;20132;-75
2022/06/10 11:16:27;;;;;;;5.18;2.35;;;;;;;46.19;8.53;99038.97;4974359;28;20088;-75
2022/06/10 11:19:19;;;;;;;3.20;2.40;;;;;;;45.70;8.75;99037.06;4974950;28;20626;-76
2022/06/10 11:21:56;;;;;;;3.00;2.50;;;;;;;45.02;8.77;99042.38;4940634;28;20089;-75
2022/06/10 11:24:26;;;;;;;3.85;2.38;;;;;;;44.10;9.26;99027.34;4975007;28;20145;-75
2022/06/10 11:27:01;;;;;;;3.47;2.13;;;;;;;42.71;10.32;99051.13;4991640;28;20058;-75
2022/06/10 11:29:28;;;;;;;4.93;2.55;;;;;;;41.78;11.21;99037.22;4959042;28;20038;-75
2022/06/10 11:31:57;;;;;;;5.97;2.50;;;;;;;41.82;10.95;99042.03;4990850;28;20525;-74
2022/06/10 11:34:39;;;;;;;4.18;2.55;;;;;;;42.02;10.96;99057.47;4974843;28;20060;-74
2022/06/10 11:37:41;;;;;;;4.32;2.20;;;;;;;42.27;10.65;99047.41;4975147;28;20085;-76
2022/06/10 11:40:13;;;;;;;7.07;2.50;;;;;;;42.43;10.41;99056.38;4904219;29;20047;-75
2022/06/10 11:42:54;;;;;;;3.25;2.50;;;;;;;41.86;10.66;99042.91;4966271;28;20054;-75
2022/06/10 11:45:45;;;;;;;3.65;2.63;;;;;;;40.91;11.59;99050.56;4994968;28;20573;-74
2022/06/10 11:48:20;;;;;;;4.72;2.70;;;;;;;40.04;12.51;99044.09;4978475;28;20095;-76
2022/06/10 11:50:53;;;;;;;6.18;2.53;;;;;;;39.26;13.52;99051.81;4978011;28;20459;-75
2022/06/10 11:53:43;;;;;;;4.55;2.50;;;;;;;39.07;13.50;99033.09;4994122;28;20045;-75
2022/06/10 11:59:45;;;;;;;4.80;3.00;;;;;;;39.09;13.39;99050.19;5010198;28;20104;-75
2022/06/10 12:02:39;;;;;;;4.47;2.72;;;;;;;38.83;14.06;99043.56;4979948;28;20066;-75
2022/06/10 12:05:17;;;;;;;4.65;3.30;;;;;;;38.42;14.83;99025.41;4989835;28;20224;-75
2022/06/10 12:07:51;;;;;;;6.97;3.03;;;;;;;38.69;14.63;99042.03;4978332;28;20085;-75
2022/06/10 12:10:20;;;;;;;11.13;3.15;;;;;;;38.74;14.22;99030.66;4994583;28;20042;-74
2022/06/10 12:12:47;;;;;;;5.28;2.97;;;;;;;38.60;14.26;99038.63;4994307;28;20524;-75
2022/06/10 12:15:21;;;;;;;6.30;2.67;;;;;;;38.48;14.22;99048.94;4995187;28;20046;-76